sensor_id;sensor_type;location;lat;lon;timestamp;pressure;altitude;pressure_sealevel;temperature;humidity
57791;BME280;43621;51.798;21.588;2023-02-10T00:00:50;101412.31;;;-0.90;54.36
57791;BME280;43621;51.798;21.588;2023-02-10T00:04:59;101413.02;;;-0.84;54.40
57791;BME280;43621;51.798;21.588;2023-02-10T00:09:02;101412.92;;;-0.79;54.32
57791;BME280;43621;51.798;21.588;2023-02-10T00:13:05;101410.32;;;-0.77;54.19
57791;BME280;43621;51.798;21.588;2023-02-10T00:17:07;101402.75;;;-0.76;54.09
57791;BME280;43621;51.798;21.588;2023-02-10T00:21:13;101398.09;;;-0.75;54.02
57791;BME280;43621;51.798;21.588;2023-02-10T00:25:16;101394.70;;;-0.76;53.98
57791;BME280;43621;51.798;21.588;2023-02-10T00:29:18;101382.70;;;-0.76;53.97
57791;BME280;43621;51.798;21.588;2023-02-10T00:33:20;101374.33;;;-0.78;53.93
57791;BME280;43621;51.798;21.588;2023-02-10T00:37:22;101371.44;;;-0.79;53.94
57791;BME280;43621;51.798;21.588;2023-02-10T00:41:24;101375.42;;;-0.81;53.87
57791;BME280;43621;51.798;21.588;2023-02-10T00:45:26;101367.27;;;-0.83;53.84
57791;BME280;43621;51.798;21.588;2023-02-10T00:49:28;101361.88;;;-0.88;53.81
57791;BME280;43621;51.798;21.588;2023-02-10T00:53:30;101368.23;;;-0.89;53.92
57791;BME280;43621;51.798;21.588;2023-02-10T00:57:32;101365.50;;;-0.89;53.88
57791;BME280;43621;51.798;21.588;2023-02-10T01:01:34;101361.68;;;-0.87;53.95
57791;BME280;43621;51.798;21.588;2023-02-10T01:05:36;101354.97;;;-0.86;53.95
57791;BME280;43621;51.798;21.588;2023-02-10T01:09:38;101346.60;;;-0.87;53.88
57791;BME280;43621;51.798;21.588;2023-02-10T01:13:41;101343.92;;;-0.90;53.88
57791;BME280;43621;51.798;21.588;2023-02-10T01:17:43;101343.48;;;-0.93;53.93
57791;BME280;43621;51.798;21.588;2023-02-10T01:21:45;101343.04;;;-0.97;53.84
57791;BME280;43621;51.798;21.588;2023-02-10T01:25:47;101341.52;;;-0.99;53.95
57791;BME280;43621;51.798;21.588;2023-02-10T01:29:49;101342.89;;;-0.98;54.00
57791;BME280;43621;51.798;21.588;2023-02-10T01:33:53;101340.02;;;-1.00;53.92
57791;BME280;43621;51.798;21.588;2023-02-10T01:37:55;101327.08;;;-1.04;53.94
57791;BME280;43621;51.798;21.588;2023-02-10T01:41:57;101319.89;;;-1.11;53.85
57791;BME280;43621;51.798;21.588;2023-02-10T01:45:59;101323.55;;;-1.14;54.02
57791;BME280;43621;51.798;21.588;2023-02-10T01:50:01;101318.64;;;-1.17;54.05
57791;BME280;43621;51.798;21.588;2023-02-10T01:54:05;101324.42;;;-1.23;54.00
57791;BME280;43621;51.798;21.588;2023-02-10T01:58:14;101325.56;;;-1.28;54.07
57791;BME280;43621;51.798;21.588;2023-02-10T02:02:17;101327.34;;;-1.33;54.15
57791;BME280;43621;51.798;21.588;2023-02-10T02:06:20;101329.65;;;-1.37;54.15
57791;BME280;43621;51.798;21.588;2023-02-10T02:28:03;101318.75;;;-1.65;54.51
57791;BME280;43621;51.798;21.588;2023-02-10T02:32:22;101325.84;;;-1.69;54.54
57791;BME280;43621;51.798;21.588;2023-02-10T02:37:04;101322.30;;;-1.71;54.66
57791;BME280;43621;51.798;21.588;2023-02-10T02:41:07;101324.27;;;-1.76;54.58
57791;BME280;43621;51.798;21.588;2023-02-10T02:45:14;101324.84;;;-1.79;54.77
57791;BME280;43621;51.798;21.588;2023-02-10T02:49:36;101326.73;;;-1.79;54.91
57791;BME280;43621;51.798;21.588;2023-02-10T02:53:50;101330.86;;;-1.81;55.08
57791;BME280;43621;51.798;21.588;2023-02-10T02:57:59;101337.23;;;-1.82;55.09
57791;BME280;43621;51.798;21.588;2023-02-10T03:02:07;101330.92;;;-1.83;55.14
57791;BME280;43621;51.798;21.588;2023-02-10T03:06:12;101325.77;;;-1.83;55.18
57791;BME280;43621;51.798;21.588;2023-02-10T03:10:14;101317.27;;;-1.85;55.08
57791;BME280;43621;51.798;21.588;2023-02-10T03:14:16;101316.30;;;-1.88;55.10
57791;BME280;43621;51.798;21.588;2023-02-10T03:18:18;101319.95;;;-1.91;55.30
57791;BME280;43621;51.798;21.588;2023-02-10T03:22:20;101324.41;;;-1.92;55.39
57791;BME280;43621;51.798;21.588;2023-02-10T03:26:22;101323.09;;;-1.95;55.54
57791;BME280;43621;51.798;21.588;2023-02-10T03:30:24;101327.94;;;-1.98;55.44
57791;BME280;43621;51.798;21.588;2023-02-10T03:34:28;101332.34;;;-2.05;55.32
57791;BME280;43621;51.798;21.588;2023-02-10T03:38:30;101322.19;;;-2.11;55.37
57791;BME280;43621;51.798;21.588;2023-02-10T03:42:32;101319.52;;;-2.14;55.49
57791;BME280;43621;51.798;21.588;2023-02-10T03:46:34;101316.33;;;-2.18;55.57
57791;BME280;43621;51.798;21.588;2023-02-10T03:50:38;101308.88;;;-2.22;55.67
57791;BME280;43621;51.798;21.588;2023-02-10T03:54:40;101306.23;;;-2.27;55.75
57791;BME280;43621;51.798;21.588;2023-02-10T03:58:42;101314.34;;;-2.31;55.81
57791;BME280;43621;51.798;21.588;2023-02-10T04:02:44;101317.11;;;-2.33;55.83
57791;BME280;43621;51.798;21.588;2023-02-10T04:06:46;101310.13;;;-2.35;55.95
57791;BME280;43621;51.798;21.588;2023-02-10T04:10:48;101306.70;;;-2.36;56.02
57791;BME280;43621;51.798;21.588;2023-02-10T04:14:50;101312.41;;;-2.39;55.97
57791;BME280;43621;51.798;21.588;2023-02-10T04:18:52;101315.00;;;-2.40;56.17
57791;BME280;43621;51.798;21.588;2023-02-10T04:22:54;101308.70;;;-2.41;56.13
57791;BME280;43621;51.798;21.588;2023-02-10T04:26:55;101298.78;;;-2.41;56.19
57791;BME280;43621;51.798;21.588;2023-02-10T04:30:59;101298.23;;;-2.39;56.34
57791;BME280;43621;51.798;21.588;2023-02-10T04:35:01;101304.11;;;-2.43;56.29
57791;BME280;43621;51.798;21.588;2023-02-10T04:39:03;101298.98;;;-2.43;56.33
57791;BME280;43621;51.798;21.588;2023-02-10T04:43:05;101295.59;;;-2.45;56.35
57791;BME280;43621;51.798;21.588;2023-02-10T04:47:07;101293.85;;;-2.43;56.55
57791;BME280;43621;51.798;21.588;2023-02-10T04:51:10;101287.77;;;-2.38;56.56
57791;BME280;43621;51.798;21.588;2023-02-10T04:55:12;101281.40;;;-2.35;56.74
57791;BME280;43621;51.798;21.588;2023-02-10T04:59:14;101280.17;;;-2.34;56.58
57791;BME280;43621;51.798;21.588;2023-02-10T05:03:16;101280.86;;;-2.34;56.62
57791;BME280;43621;51.798;21.588;2023-02-10T05:07:18;101275.73;;;-2.34;56.59
57791;BME280;43621;51.798;21.588;2023-02-10T05:11:20;101268.45;;;-2.38;56.74
57791;BME280;43621;51.798;21.588;2023-02-10T05:15:22;101270.09;;;-2.43;56.60
57791;BME280;43621;51.798;21.588;2023-02-10T05:19:24;101279.29;;;-2.52;56.57
57791;BME280;43621;51.798;21.588;2023-02-10T05:23:26;101283.64;;;-2.55;56.92
57791;BME280;43621;51.798;21.588;2023-02-10T05:27:28;101279.23;;;-2.58;56.96
57791;BME280;43621;51.798;21.588;2023-02-10T05:31:30;101279.44;;;-2.63;56.84
57791;BME280;43621;51.798;21.588;2023-02-10T05:35:32;101279.17;;;-2.66;56.77
57791;BME280;43621;51.798;21.588;2023-02-10T05:39:34;101282.64;;;-2.70;56.99
57791;BME280;43621;51.798;21.588;2023-02-10T05:43:36;101288.77;;;-2.68;57.22
57791;BME280;43621;51.798;21.588;2023-02-10T05:47:37;101292.30;;;-2.65;57.21
57791;BME280;43621;51.798;21.588;2023-02-10T05:51:40;101296.39;;;-2.65;57.19
57791;BME280;43621;51.798;21.588;2023-02-10T05:55:41;101297.91;;;-2.63;57.23
57791;BME280;43621;51.798;21.588;2023-02-10T05:59:43;101298.04;;;-2.59;57.40
57791;BME280;43621;51.798;21.588;2023-02-10T06:03:45;101301.33;;;-2.51;57.38
57791;BME280;43621;51.798;21.588;2023-02-10T06:07:47;101306.61;;;-2.39;57.41
57791;BME280;43621;51.798;21.588;2023-02-10T06:11:50;101310.77;;;-2.23;57.46
57791;BME280;43621;51.798;21.588;2023-02-10T06:15:53;101310.69;;;-1.99;58.06
57791;BME280;43621;51.798;21.588;2023-02-10T06:19:55;101308.45;;;-1.47;58.82
57791;BME280;43621;51.798;21.588;2023-02-10T06:23:57;101306.69;;;-1.04;57.75
57791;BME280;43621;51.798;21.588;2023-02-10T06:27:59;101297.92;;;-0.81;56.93
57791;BME280;43621;51.798;21.588;2023-02-10T06:32:00;101301.92;;;-0.48;56.62
57791;BME280;43621;51.798;21.588;2023-02-10T06:36:03;101305.52;;;0.43;57.12
57791;BME280;43621;51.798;21.588;2023-02-10T06:40:08;101306.06;;;1.65;56.43
57791;BME280;43621;51.798;21.588;2023-02-10T06:44:10;101302.04;;;2.17;54.51
57791;BME280;43621;51.798;21.588;2023-02-10T06:48:12;101289.89;;;2.05;53.57
57791;BME280;43621;51.798;21.588;2023-02-10T06:52:14;101293.91;;;1.73;53.02
57791;BME280;43621;51.798;21.588;2023-02-10T06:56:15;101305.06;;;1.75;53.51
57791;BME280;43621;51.798;21.588;2023-02-10T07:00:17;101328.12;;;1.54;53.66
57791;BME280;43621;51.798;21.588;2023-02-10T07:04:19;101330.34;;;1.28;53.56
57791;BME280;43621;51.798;21.588;2023-02-10T07:08:21;101335.94;;;1.08;53.61
57791;BME280;43621;51.798;21.588;2023-02-10T07:12:23;101341.11;;;0.90;53.48
57791;BME280;43621;51.798;21.588;2023-02-10T07:16:26;101341.94;;;0.68;53.41
57791;BME280;43621;51.798;21.588;2023-02-10T07:20:29;101347.12;;;0.49;53.59
57791;BME280;43621;51.798;21.588;2023-02-10T07:24:32;101344.27;;;0.34;53.72
57791;BME280;43621;51.798;21.588;2023-02-10T07:28:34;101345.74;;;0.24;54.01
57791;BME280;43621;51.798;21.588;2023-02-10T07:32:36;101343.70;;;0.23;54.12
57791;BME280;43621;51.798;21.588;2023-02-10T07:36:38;101343.78;;;0.26;54.22
57791;BME280;43621;51.798;21.588;2023-02-10T07:40:40;101341.75;;;0.32;54.22
57791;BME280;43621;51.798;21.588;2023-02-10T07:44:42;101340.45;;;0.35;54.27
57791;BME280;43621;51.798;21.588;2023-02-10T07:48:44;101337.02;;;0.42;54.35
57791;BME280;43621;51.798;21.588;2023-02-10T07:52:46;101329.65;;;0.47;54.28
57791;BME280;43621;51.798;21.588;2023-02-10T07:56:49;101334.24;;;0.54;54.33
57791;BME280;43621;51.798;21.588;2023-02-10T08:00:51;101337.23;;;0.64;54.43
57791;BME280;43621;51.798;21.588;2023-02-10T08:04:53;101327.50;;;0.73;54.31
57791;BME280;43621;51.798;21.588;2023-02-10T08:08:57;101325.99;;;0.78;54.25
57791;BME280;43621;51.798;21.588;2023-02-10T08:12:59;101323.79;;;0.83;54.20
57791;BME280;43621;51.798;21.588;2023-02-10T08:17:00;101320.66;;;0.95;54.17
57791;BME280;43621;51.798;21.588;2023-02-10T08:21:03;101317.58;;;1.12;54.14
57791;BME280;43621;51.798;21.588;2023-02-10T08:25:05;101315.17;;;1.34;53.90
57791;BME280;43621;51.798;21.588;2023-02-10T08:29:07;101318.40;;;1.72;53.94
57791;BME280;43621;51.798;21.588;2023-02-10T08:33:09;101319.75;;;2.46;53.77
57791;BME280;43621;51.798;21.588;2023-02-10T08:37:12;101318.97;;;3.38;53.09
57791;BME280;43621;51.798;21.588;2023-02-10T08:41:15;101320.64;;;3.82;53.01
57791;BME280;43621;51.798;21.588;2023-02-10T08:45:17;101323.43;;;4.10;52.36
57791;BME280;43621;51.798;21.588;2023-02-10T08:49:19;101328.45;;;4.18;51.63
57791;BME280;43621;51.798;21.588;2023-02-10T08:53:22;101331.91;;;3.98;51.18
57791;BME280;43621;51.798;21.588;2023-02-10T08:57:23;101326.91;;;3.68;51.13
57791;BME280;43621;51.798;21.588;2023-02-10T09:01:26;101326.89;;;3.52;50.97
57791;BME280;43621;51.798;21.588;2023-02-10T09:05:28;101323.68;;;3.63;51.22
57791;BME280;43621;51.798;21.588;2023-02-10T09:09:30;101329.89;;;4.04;50.99
57791;BME280;43621;51.798;21.588;2023-02-10T09:13:31;101333.40;;;4.23;50.59
57791;BME280;43621;51.798;21.588;2023-02-10T09:17:33;101340.39;;;4.45;50.55
57791;BME280;43621;51.798;21.588;2023-02-10T09:21:36;101344.88;;;4.37;50.02
57791;BME280;43621;51.798;21.588;2023-02-10T09:25:38;101347.50;;;4.13;50.21
57791;BME280;43621;51.798;21.588;2023-02-10T09:29:40;101344.69;;;4.22;50.32
57791;BME280;43621;51.798;21.588;2023-02-10T09:33:43;101342.57;;;4.62;50.38
57791;BME280;43621;51.798;21.588;2023-02-10T09:37:46;101335.53;;;5.06;49.76
57791;BME280;43621;51.798;21.588;2023-02-10T09:41:57;101340.58;;;5.16;49.16
57791;BME280;43621;51.798;21.588;2023-02-10T09:46:16;101343.27;;;5.10;49.37
57791;BME280;43621;51.798;21.588;2023-02-10T09:50:36;101360.92;;;5.06;49.31
57791;BME280;43621;51.798;21.588;2023-02-10T09:54:44;101360.24;;;4.76;49.24
57791;BME280;43621;51.798;21.588;2023-02-10T09:58:52;101359.79;;;4.44;49.11
57791;BME280;43621;51.798;21.588;2023-02-10T10:02:56;101359.00;;;4.11;49.42
57791;BME280;43621;51.798;21.588;2023-02-10T10:07:36;101357.31;;;3.93;49.67
57791;BME280;43621;51.798;21.588;2023-02-10T10:11:47;101370.72;;;3.82;50.07
57791;BME280;43621;51.798;21.588;2023-02-10T10:16:06;101363.23;;;3.71;50.25
57791;BME280;43621;51.798;21.588;2023-02-10T10:25:15;101364.64;;;3.44;50.48
57791;BME280;43621;51.798;21.588;2023-02-10T10:33:41;101364.05;;;3.29;50.85
57791;BME280;43621;51.798;21.588;2023-02-10T10:37:44;101358.44;;;3.18;50.93
57791;BME280;43621;51.798;21.588;2023-02-10T10:41:47;101358.89;;;3.16;51.13
57791;BME280;43621;51.798;21.588;2023-02-10T10:45:52;101350.91;;;3.21;51.31
57791;BME280;43621;51.798;21.588;2023-02-10T10:49:56;101351.30;;;3.33;51.45
57791;BME280;43621;51.798;21.588;2023-02-10T10:53:58;101346.08;;;3.39;51.54
57791;BME280;43621;51.798;21.588;2023-02-10T10:58:01;101349.08;;;3.41;51.48
57791;BME280;43621;51.798;21.588;2023-02-10T11:02:19;101354.89;;;3.43;51.57
57791;BME280;43621;51.798;21.588;2023-02-10T11:06:21;101352.02;;;3.49;51.80
57791;BME280;43621;51.798;21.588;2023-02-10T11:10:32;101351.28;;;3.60;51.87
57791;BME280;43621;51.798;21.588;2023-02-10T11:14:43;101347.04;;;3.58;51.75
57791;BME280;43621;51.798;21.588;2023-02-10T11:18:56;101344.75;;;3.46;51.80
57791;BME280;43621;51.798;21.588;2023-02-10T11:23:14;101350.86;;;3.35;51.90
57791;BME280;43621;51.798;21.588;2023-02-10T11:27:17;101354.44;;;3.41;52.11
57791;BME280;43621;51.798;21.588;2023-02-10T11:31:33;101345.98;;;3.49;52.23
57791;BME280;43621;51.798;21.588;2023-02-10T11:35:38;101346.95;;;3.55;52.19
57791;BME280;43621;51.798;21.588;2023-02-10T11:39:43;101353.48;;;3.47;52.28
57791;BME280;43621;51.798;21.588;2023-02-10T11:43:47;101356.98;;;3.42;52.36
57791;BME280;43621;51.798;21.588;2023-02-10T11:48:03;101352.91;;;3.36;52.54
57791;BME280;43621;51.798;21.588;2023-02-10T11:52:05;101348.80;;;3.22;52.65
57791;BME280;43621;51.798;21.588;2023-02-10T12:04:49;101363.44;;;3.27;53.16
57791;BME280;43621;51.798;21.588;2023-02-10T12:13:32;101371.60;;;3.47;53.16
57791;BME280;43621;51.798;21.588;2023-02-10T12:39:38;101382.11;;;3.26;53.71
57791;BME280;43621;51.798;21.588;2023-02-10T12:52:36;101380.05;;;3.09;54.06
57791;BME280;43621;51.798;21.588;2023-02-10T12:56:44;101366.65;;;3.11;54.29
57791;BME280;43621;51.798;21.588;2023-02-10T13:00:53;101370.83;;;3.32;54.40
57791;BME280;43621;51.798;21.588;2023-02-10T13:05:05;101365.98;;;3.59;54.46
57791;BME280;43621;51.798;21.588;2023-02-10T13:09:49;101363.80;;;3.78;54.47
57791;BME280;43621;51.798;21.588;2023-02-10T13:13:54;101371.35;;;3.88;54.28
57791;BME280;43621;51.798;21.588;2023-02-10T13:17:57;101376.56;;;3.87;54.26
57791;BME280;43621;51.798;21.588;2023-02-10T13:31:04;101382.31;;;3.56;54.51
57791;BME280;43621;51.798;21.588;2023-02-10T13:35:14;101382.77;;;3.45;54.80
57791;BME280;43621;51.798;21.588;2023-02-10T13:39:23;101380.55;;;3.39;55.08
57791;BME280;43621;51.798;21.588;2023-02-10T13:43:31;101381.15;;;3.42;55.25
57791;BME280;43621;51.798;21.588;2023-02-10T13:51:38;101379.09;;;3.46;55.31
57791;BME280;43621;51.798;21.588;2023-02-10T13:55:42;101376.80;;;3.43;55.48
57791;BME280;43621;51.798;21.588;2023-02-10T13:59:44;101380.13;;;3.46;55.62
57791;BME280;43621;51.798;21.588;2023-02-10T14:03:54;101379.52;;;3.48;55.68
57791;BME280;43621;51.798;21.588;2023-02-10T14:07:57;101383.04;;;3.46;55.67
57791;BME280;43621;51.798;21.588;2023-02-10T14:12:01;101380.16;;;3.41;55.78
57791;BME280;43621;51.798;21.588;2023-02-10T14:20:35;101387.09;;;3.27;56.07
57791;BME280;43621;51.798;21.588;2023-02-10T14:24:43;101394.43;;;3.20;56.09
57791;BME280;43621;51.798;21.588;2023-02-10T14:28:48;101406.73;;;3.14;56.15
57791;BME280;43621;51.798;21.588;2023-02-10T14:32:51;101417.33;;;3.08;56.29
57791;BME280;43621;51.798;21.588;2023-02-10T14:36:59;101423.55;;;2.98;56.56
57791;BME280;43621;51.798;21.588;2023-02-10T14:41:02;101429.72;;;2.90;56.63
57791;BME280;43621;51.798;21.588;2023-02-10T14:45:05;101436.80;;;2.85;57.05
57791;BME280;43621;51.798;21.588;2023-02-10T14:49:09;101435.05;;;2.85;57.18
57791;BME280;43621;51.798;21.588;2023-02-10T14:53:17;101442.00;;;2.89;57.22
57791;BME280;43621;51.798;21.588;2023-02-10T14:57:21;101450.58;;;2.91;57.42
57791;BME280;43621;51.798;21.588;2023-02-10T15:01:27;101452.23;;;2.87;57.67
57791;BME280;43621;51.798;21.588;2023-02-10T15:05:37;101453.63;;;2.82;57.60
57791;BME280;43621;51.798;21.588;2023-02-10T15:09:39;101460.71;;;2.77;57.64
57791;BME280;43621;51.798;21.588;2023-02-10T15:13:47;101458.95;;;2.73;57.83
57791;BME280;43621;51.798;21.588;2023-02-10T15:17:52;101456.09;;;2.67;57.80
57791;BME280;43621;51.798;21.588;2023-02-10T15:21:56;101460.08;;;2.61;57.87
57791;BME280;43621;51.798;21.588;2023-02-10T15:30:08;101465.41;;;2.46;58.08
57791;BME280;43621;51.798;21.588;2023-02-10T15:34:30;101462.02;;;2.39;58.17
57791;BME280;43621;51.798;21.588;2023-02-10T15:38:33;101463.59;;;2.34;58.29
57791;BME280;43621;51.798;21.588;2023-02-10T15:42:35;101467.73;;;2.34;58.39
57791;BME280;43621;51.798;21.588;2023-02-10T15:46:38;101468.09;;;2.38;58.62
57791;BME280;43621;51.798;21.588;2023-02-10T15:50:41;101471.67;;;2.44;58.90
57791;BME280;43621;51.798;21.588;2023-02-10T15:54:43;101477.43;;;2.52;59.24
57791;BME280;43621;51.798;21.588;2023-02-10T15:58:45;101478.70;;;2.55;59.13
57791;BME280;43621;51.798;21.588;2023-02-10T16:02:47;101482.48;;;2.55;59.29
57791;BME280;43621;51.798;21.588;2023-02-10T16:06:49;101482.90;;;2.53;59.41
57791;BME280;43621;51.798;21.588;2023-02-10T16:10:51;101489.46;;;2.48;59.31
57791;BME280;43621;51.798;21.588;2023-02-10T16:14:53;101494.61;;;2.43;59.33
57791;BME280;43621;51.798;21.588;2023-02-10T16:18:56;101494.07;;;2.39;59.44
57791;BME280;43621;51.798;21.588;2023-02-10T16:22:59;101498.30;;;2.36;59.63
57791;BME280;43621;51.798;21.588;2023-02-10T16:27:01;101501.58;;;2.31;59.64
57791;BME280;43621;51.798;21.588;2023-02-10T16:31:03;101503.92;;;2.33;59.69
57791;BME280;43621;51.798;21.588;2023-02-10T16:35:06;101505.44;;;2.39;59.80
57791;BME280;43621;51.798;21.588;2023-02-10T16:39:14;101509.11;;;2.48;59.96
57791;BME280;43621;51.798;21.588;2023-02-10T16:43:16;101504.48;;;2.58;60.15
57791;BME280;43621;51.798;21.588;2023-02-10T16:47:20;101502.16;;;2.65;60.20
57791;BME280;43621;51.798;21.588;2023-02-10T16:51:22;101507.52;;;2.65;60.19
57791;BME280;43621;51.798;21.588;2023-02-10T16:55:25;101513.30;;;2.63;60.15
57791;BME280;43621;51.798;21.588;2023-02-10T16:59:26;101515.70;;;2.57;60.16
57791;BME280;43621;51.798;21.588;2023-02-10T17:03:29;101508.91;;;2.53;60.17
57791;BME280;43621;51.798;21.588;2023-02-10T17:07:31;101508.41;;;2.48;60.20
57791;BME280;43621;51.798;21.588;2023-02-10T17:11:33;101507.58;;;2.42;60.28
57791;BME280;43621;51.798;21.588;2023-02-10T17:15:35;101505.50;;;2.37;60.49
57791;BME280;43621;51.798;21.588;2023-02-10T17:19:37;101511.12;;;2.34;60.62
57791;BME280;43621;51.798;21.588;2023-02-10T17:23:39;101510.40;;;2.30;60.65
57791;BME280;43621;51.798;21.588;2023-02-10T17:27:41;101504.20;;;2.30;60.78
57791;BME280;43621;51.798;21.588;2023-02-10T17:31:43;101502.38;;;2.33;61.12
57791;BME280;43621;51.798;21.588;2023-02-10T17:35:46;101495.91;;;2.36;61.22
57791;BME280;43621;51.798;21.588;2023-02-10T17:39:48;101489.97;;;2.38;61.45
57791;BME280;43621;51.798;21.588;2023-02-10T17:43:52;101489.16;;;2.37;61.59
57791;BME280;43621;51.798;21.588;2023-02-10T17:47:55;101489.67;;;2.32;61.51
57791;BME280;43621;51.798;21.588;2023-02-10T17:51:58;101484.84;;;2.26;61.67
57791;BME280;43621;51.798;21.588;2023-02-10T17:56:01;101488.23;;;2.22;61.86
57791;BME280;43621;51.798;21.588;2023-02-10T18:00:04;101492.13;;;2.19;61.85
57791;BME280;43621;51.798;21.588;2023-02-10T18:04:06;101491.89;;;2.16;61.88
57791;BME280;43621;51.798;21.588;2023-02-10T18:08:09;101494.73;;;2.14;61.95
57791;BME280;43621;51.798;21.588;2023-02-10T18:12:11;101493.16;;;2.14;62.05
57791;BME280;43621;51.798;21.588;2023-02-10T18:16:15;101495.66;;;2.17;62.16
57791;BME280;43621;51.798;21.588;2023-02-10T18:20:18;101498.68;;;2.24;62.48
57791;BME280;43621;51.798;21.588;2023-02-10T18:24:20;101497.38;;;2.33;62.64
57791;BME280;43621;51.798;21.588;2023-02-10T18:28:22;101494.20;;;2.35;62.63
57791;BME280;43621;51.798;21.588;2023-02-10T18:32:24;101492.47;;;2.36;62.69
57791;BME280;43621;51.798;21.588;2023-02-10T18:36:26;101488.73;;;2.33;62.64
57791;BME280;43621;51.798;21.588;2023-02-10T18:40:28;101495.09;;;2.29;62.85
57791;BME280;43621;51.798;21.588;2023-02-10T18:44:30;101495.04;;;2.25;62.97
57791;BME280;43621;51.798;21.588;2023-02-10T18:48:32;101494.50;;;2.21;62.74
57791;BME280;43621;51.798;21.588;2023-02-10T18:52:34;101490.70;;;2.16;62.75
57791;BME280;43621;51.798;21.588;2023-02-10T18:56:36;101488.76;;;2.12;62.85
57791;BME280;43621;51.798;21.588;2023-02-10T19:00:39;101487.66;;;2.14;62.77
57791;BME280;43621;51.798;21.588;2023-02-10T19:04:41;101486.02;;;2.22;62.88
57791;BME280;43621;51.798;21.588;2023-02-10T19:08:43;101482.10;;;2.31;63.04
57791;BME280;43621;51.798;21.588;2023-02-10T19:12:46;101480.05;;;2.35;62.95
57791;BME280;43621;51.798;21.588;2023-02-10T19:16:48;101468.52;;;2.36;63.18
57791;BME280;43621;51.798;21.588;2023-02-10T19:20:50;101465.51;;;2.33;63.34
57791;BME280;43621;51.798;21.588;2023-02-10T19:24:52;101460.31;;;2.28;63.29
57791;BME280;43621;51.798;21.588;2023-02-10T19:28:54;101457.48;;;2.25;63.38
57791;BME280;43621;51.798;21.588;2023-02-10T19:32:57;101456.05;;;2.22;63.30
57791;BME280;43621;51.798;21.588;2023-02-10T19:37:00;101458.09;;;2.17;63.33
57791;BME280;43621;51.798;21.588;2023-02-10T19:41:04;101457.67;;;2.14;63.33
57791;BME280;43621;51.798;21.588;2023-02-10T19:45:07;101456.55;;;2.17;63.39
57791;BME280;43621;51.798;21.588;2023-02-10T19:49:10;101446.64;;;2.25;63.56
57791;BME280;43621;51.798;21.588;2023-02-10T19:53:12;101437.77;;;2.33;63.65
57791;BME280;43621;51.798;21.588;2023-02-10T19:57:15;101437.15;;;2.41;63.78
57791;BME280;43621;51.798;21.588;2023-02-10T20:01:17;101435.11;;;2.45;63.85
57791;BME280;43621;51.798;21.588;2023-02-10T20:05:20;101435.95;;;2.45;63.88
57791;BME280;43621;51.798;21.588;2023-02-10T20:09:22;101437.46;;;2.41;63.99
57791;BME280;43621;51.798;21.588;2023-02-10T20:13:24;101432.00;;;2.35;63.95
57791;BME280;43621;51.798;21.588;2023-02-10T20:17:27;101427.84;;;2.31;64.19
57791;BME280;43621;51.798;21.588;2023-02-10T20:21:29;101423.64;;;2.28;64.21
57791;BME280;43621;51.798;21.588;2023-02-10T20:25:31;101423.36;;;2.25;64.23
57791;BME280;43621;51.798;21.588;2023-02-10T20:29:32;101424.91;;;2.26;64.30
57791;BME280;43621;51.798;21.588;2023-02-10T20:33:34;101424.20;;;2.32;64.38
57791;BME280;43621;51.798;21.588;2023-02-10T20:37:36;101430.58;;;2.41;64.52
57791;BME280;43621;51.798;21.588;2023-02-10T20:41:38;101435.00;;;2.48;64.61
57791;BME280;43621;51.798;21.588;2023-02-10T20:45:40;101425.19;;;2.52;64.68
57791;BME280;43621;51.798;21.588;2023-02-10T20:49:42;101422.60;;;2.52;64.65
57791;BME280;43621;51.798;21.588;2023-02-10T20:53:44;101424.47;;;2.48;64.49
57791;BME280;43621;51.798;21.588;2023-02-10T20:57:47;101430.34;;;2.43;64.44
57791;BME280;43621;51.798;21.588;2023-02-10T21:01:51;101435.16;;;2.38;64.59
57791;BME280;43621;51.798;21.588;2023-02-10T21:06:05;101435.08;;;2.36;64.64
57791;BME280;43621;51.798;21.588;2023-02-10T21:10:07;101432.95;;;2.32;64.73
57791;BME280;43621;51.798;21.588;2023-02-10T21:14:09;101425.25;;;2.31;64.75
57791;BME280;43621;51.798;21.588;2023-02-10T21:18:11;101420.02;;;2.33;64.68
57791;BME280;43621;51.798;21.588;2023-02-10T21:22:13;101418.39;;;2.40;64.83
57791;BME280;43621;51.798;21.588;2023-02-10T21:26:16;101414.84;;;2.47;64.81
57791;BME280;43621;51.798;21.588;2023-02-10T21:30:18;101409.91;;;2.56;64.94
57791;BME280;43621;51.798;21.588;2023-02-10T21:34:20;101406.25;;;2.62;65.00
57791;BME280;43621;51.798;21.588;2023-02-10T21:38:23;101403.42;;;2.64;65.12
57791;BME280;43621;51.798;21.588;2023-02-10T21:42:25;101403.64;;;2.63;65.13
57791;BME280;43621;51.798;21.588;2023-02-10T21:46:27;101398.95;;;2.58;64.97
57791;BME280;43621;51.798;21.588;2023-02-10T21:50:29;101398.92;;;2.54;65.02
57791;BME280;43621;51.798;21.588;2023-02-10T21:54:35;101399.91;;;2.51;65.23
57791;BME280;43621;51.798;21.588;2023-02-10T21:58:37;101399.94;;;2.45;65.36
57791;BME280;43621;51.798;21.588;2023-02-10T22:02:40;101405.50;;;2.44;65.29
57791;BME280;43621;51.798;21.588;2023-02-10T22:06:43;101401.38;;;2.48;65.33
57791;BME280;43621;51.798;21.588;2023-02-10T22:10:45;101399.91;;;2.55;65.40
57791;BME280;43621;51.798;21.588;2023-02-10T22:14:47;101397.62;;;2.62;65.52
57791;BME280;43621;51.798;21.588;2023-02-10T22:18:49;101399.96;;;2.64;65.44
57791;BME280;43621;51.798;21.588;2023-02-10T22:22:51;101398.27;;;2.64;65.52
57791;BME280;43621;51.798;21.588;2023-02-10T22:26:53;101393.66;;;2.62;65.56
57791;BME280;43621;51.798;21.588;2023-02-10T22:30:55;101388.93;;;2.59;65.53
57791;BME280;43621;51.798;21.588;2023-02-10T22:34:57;101383.52;;;2.56;65.55
57791;BME280;43621;51.798;21.588;2023-02-10T22:38:59;101376.73;;;2.53;65.63
57791;BME280;43621;51.798;21.588;2023-02-10T22:43:01;101362.05;;;2.49;65.83